Time;durP1;ratioP1;P1;durP2;ratioP2;P2;SDS_P1;SDS_P2;PMS_P1;PMS_P2;Temp;Humidity;BMP_temperature;BMP_pressure;BME280_temperature;BME280_humidity;BME280_pressure;Samples;Min_cycle;Max_cycle;Signal;HPM_P1;HPM_P2
2024/01/23 00:00:23;;;;;;;25.20;13.20;;;;;;;;;;6282656;28;20048;-72
2024/01/23 00:03:26;;;;;;;16.88;10.48;;;;;;;;;;6281623;28;20069;-71
2024/01/23 00:06:28;;;;;;;22.20;19.83;;;;;;;;;;6280099;28;20577;-72
2024/01/23 00:09:30;;;;;;;16.65;12.00;;;;;;;;;;6273397;28;20145;-72
2024/01/23 00:12:32;;;;;;;16.45;11.02;;;;;;;;;;6278767;28;20041;-72
2024/01/23 00:15:35;;;;;;;17.55;10.73;;;;;;;;;;6275674;28;20076;-72
2024/01/23 00:18:38;;;;;;;25.00;13.10;;;;;;;;;;6279862;28;20542;-73
2024/01/23 00:21:40;;;;;;;18.88;15.32;;;;;;;;;;6281442;28;20055;-71
2024/01/23 00:24:43;;;;;;;11.25;9.30;;;;;;;;;;6282136;28;20177;-72
2024/01/23 00:27:45;;;;;;;23.92;14.13;;;;;;;;;;6283472;28;20044;-72
2024/01/23 00:30:47;;;;;;;13.27;10.77;;;;;;;;;;6284085;28;20071;-72
2024/01/23 00:33:49;;;;;;;28.55;21.02;;;;;;;;;;6278818;28;20418;-72
2024/01/23 00:36:52;;;;;;;30.55;13.23;;;;;;;;;;6280586;28;20049;-71
2024/01/23 00:39:55;;;;;;;31.20;15.30;;;;;;;;;;6280724;28;20754;-71
2024/01/23 00:42:57;;;;;;;44.42;21.17;;;;;;;;;;6279587;28;20191;-71
2024/01/23 00:46:00;;;;;;;53.72;19.65;;;;;;;;;;6274233;28;20045;-71
2024/01/23 00:49:02;;;;;;;32.85;22.10;;;;;;;;;;6281337;28;20072;-72
2024/01/23 00:52:04;;;;;;;38.90;14.82;;;;;;;;;;6283695;28;20044;-72
2024/01/23 00:55:07;;;;;;;49.60;23.08;;;;;;;;;;6281222;28;20143;-72
2024/01/23 00:58:11;;;;;;;41.88;11.70;;;;;;;;;;6273813;28;20119;-72
2024/01/23 01:01:14;;;;;;;22.60;16.77;;;;;;;;;;6283188;28;20491;-71
2024/01/23 01:04:18;;;;;;;16.17;12.48;;;;;;;;;;6280550;28;20044;-72
2024/01/23 01:07:21;;;;;;;20.83;16.63;;;;;;;;;;6278149;28;20053;-72
2024/01/23 01:10:23;;;;;;;9.85;7.90;;;;;;;;;;6280199;28;20044;-72
2024/01/23 01:13:25;;;;;;;18.52;10.63;;;;;;;;;;6280688;28;20052;-73
2024/01/23 01:16:28;;;;;;;20.90;17.08;;;;;;;;;;6283118;28;20570;-72
2024/01/23 01:19:31;;;;;;;8.07;6.82;;;;;;;;;;6281586;28;20172;-73
2024/01/23 01:22:33;;;;;;;17.23;9.30;;;;;;;;;;6282468;28;20044;-72
2024/01/23 01:25:36;;;;;;;11.35;9.85;;;;;;;;;;6305366;28;20552;-72
2024/01/23 01:28:38;;;;;;;14.23;9.25;;;;;;;;;;6278266;28;20154;-73
2024/01/23 01:31:40;;;;;;;12.13;10.52;;;;;;;;;;6277768;28;20039;-71
2024/01/23 01:34:42;;;;;;;13.15;7.70;;;;;;;;;;6272429;28;20122;-72
2024/01/23 01:37:44;;;;;;;11.98;8.25;;;;;;;;;;6273046;28;20090;-73
2024/01/23 01:40:46;;;;;;;10.73;8.68;;;;;;;;;;6261558;28;20063;-73
2024/01/23 01:43:49;;;;;;;10.57;9.43;;;;;;;;;;6258595;28;20097;-72
2024/01/23 01:46:51;;;;;;;15.63;9.52;;;;;;;;;;6277570;28;20051;-72
2024/01/23 01:49:53;;;;;;;22.90;13.68;;;;;;;;;;6262698;28;20052;-72
2024/01/23 01:52:55;;;;;;;8.93;6.95;;;;;;;;;;6278415;28;20071;-72
2024/01/23 01:55:58;;;;;;;26.40;13.63;;;;;;;;;;6274211;28;20044;-73
2024/01/23 01:59:00;;;;;;;13.27;11.57;;;;;;;;;;6280313;28;20040;-72
2024/01/23 02:02:04;;;;;;;15.52;14.45;;;;;;;;;;6277627;28;20427;-73
2024/01/23 02:05:07;;;;;;;19.77;11.15;;;;;;;;;;6269746;28;20059;-73
2024/01/23 02:08:10;;;;;;;17.77;9.40;;;;;;;;;;6284213;28;20052;-72
2024/01/23 02:11:16;;;;;;;41.47;26.42;;;;;;;;;;6273122;28;20449;-73
2024/01/23 02:14:18;;;;;;;9.52;8.07;;;;;;;;;;6283268;28;20072;-72
2024/01/23 02:17:20;;;;;;;20.60;10.57;;;;;;;;;;6287268;28;20137;-72
2024/01/23 02:20:22;;;;;;;16.20;13.05;;;;;;;;;;6283979;28;20707;-71
2024/01/23 02:23:30;;;;;;;21.38;12.07;;;;;;;;;;6277229;28;20076;-72
2024/01/23 02:26:33;;;;;;;16.83;13.85;;;;;;;;;;6300356;28;20055;-72
2024/01/23 02:29:37;;;;;;;12.25;8.80;;;;;;;;;;6275448;28;20052;-71
2024/01/23 02:32:43;;;;;;;9.20;8.32;;;;;;;;;;6282097;28;20083;-71
2024/01/23 02:35:46;;;;;;;8.65;7.63;;;;;;;;;;6280069;28;20044;-72
2024/01/23 02:38:50;;;;;;;56.00;14.50;;;;;;;;;;6274218;28;20048;-71
2024/01/23 02:41:52;;;;;;;33.78;21.08;;;;;;;;;;6278557;28;20036;-73
2024/01/23 02:44:54;;;;;;;26.60;12.20;;;;;;;;;;6283207;28;20541;-71
2024/01/23 02:47:56;;;;;;;11.57;10.55;;;;;;;;;;6282060;28;20039;-72
2024/01/23 02:50:58;;;;;;;31.60;12.75;;;;;;;;;;6285813;28;20041;-71
2024/01/23 02:54:00;;;;;;;31.02;14.60;;;;;;;;;;6283397;28;20604;-71
2024/01/23 02:57:03;;;;;;;13.05;10.85;;;;;;;;;;6282526;28;20055;-71
2024/01/23 03:00:07;;;;;;;8.32;5.72;;;;;;;;;;6284406;28;20082;-72
2024/01/23 03:03:10;;;;;;;25.70;13.02;;;;;;;;;;6277722;28;20144;-72
2024/01/23 03:06:13;;;;;;;8.85;7.43;;;;;;;;;;6280669;28;20051;-72
2024/01/23 03:09:15;;;;;;;25.25;11.77;;;;;;;;;;6284682;28;20044;-71
2024/01/23 03:12:22;;;;;;;11.55;9.52;;;;;;;;;;6280778;28;20203;-71
2024/01/23 03:15:25;;;;;;;12.23;8.65;;;;;;;;;;6274838;28;20156;-72
2024/01/23 03:18:27;;;;;;;11.50;7.57;;;;;;;;;;6275551;28;20087;-73
2024/01/23 03:21:30;;;;;;;18.75;9.07;;;;;;;;;;6274172;28;20049;-72
2024/01/23 03:24:35;;;;;;;14.73;6.78;;;;;;;;;;6279069;28;20443;-73
2024/01/23 03:27:38;;;;;;;12.27;9.43;;;;;;;;;;6275554;28;20101;-72
2024/01/23 03:30:40;;;;;;;12.18;11.02;;;;;;;;;;6285641;28;20071;-72
2024/01/23 03:33:42;;;;;;;21.98;10.13;;;;;;;;;;6281173;28;20049;-72
2024/01/23 03:36:46;;;;;;;18.45;8.75;;;;;;;;;;6280495;28;20649;-72
2024/01/23 03:39:48;;;;;;;23.13;11.00;;;;;;;;;;6275932;28;20070;-72
2024/01/23 03:42:50;;;;;;;15.52;8.45;;;;;;;;;;6275270;28;20152;-72
2024/01/23 03:45:52;;;;;;;17.08;10.77;;;;;;;;;;6284506;28;20082;-73
2024/01/23 03:48:54;;;;;;;10.80;6.45;;;;;;;;;;6274418;28;20041;-72
2024/01/23 03:51:56;;;;;;;16.05;8.63;;;;;;;;;;6279038;28;20059;-72
2024/01/23 03:54:59;;;;;;;15.60;10.40;;;;;;;;;;6277177;28;20291;-72
2024/01/23 03:58:01;;;;;;;15.45;9.70;;;;;;;;;;6277244;28;20092;-73
2024/01/23 04:01:03;;;;;;;8.60;7.55;;;;;;;;;;6283548;28;20846;-72
2024/01/23 04:04:07;;;;;;;13.75;10.05;;;;;;;;;;6279479;28;20665;-73
2024/01/23 04:07:09;;;;;;;16.88;8.88;;;;;;;;;;6278480;28;20605;-72
2024/01/23 04:10:13;;;;;;;10.90;9.80;;;;;;;;;;6271204;28;20040;-72
2024/01/23 04:13:15;;;;;;;15.65;14.38;;;;;;;;;;6278800;28;20679;-73
2024/01/23 04:16:17;;;;;;;22.60;13.80;;;;;;;;;;6277585;28;20052;-72
2024/01/23 04:19:20;;;;;;;14.15;10.95;;;;;;;;;;6285633;28;20518;-73
2024/01/23 04:22:22;;;;;;;18.83;15.05;;;;;;;;;;6276179;28;20439;-73
2024/01/23 04:25:26;;;;;;;15.80;11.57;;;;;;;;;;6277286;28;20032;-73
2024/01/23 04:28:28;;;;;;;10.27;9.23;;;;;;;;;;6263561;28;20158;-72
2024/01/23 04:31:31;;;;;;;43.28;17.85;;;;;;;;;;6287356;28;20859;-73
2024/01/23 04:34:33;;;;;;;24.38;17.27;;;;;;;;;;6264275;28;20143;-72
2024/01/23 04:37:35;;;;;;;37.97;18.35;;;;;;;;;;6279317;28;20053;-72
2024/01/23 04:40:39;;;;;;;33.08;17.13;;;;;;;;;;6282482;28;20182;-72
2024/01/23 04:43:41;;;;;;;17.27;11.50;;;;;;;;;;6286186;28;20045;-72
2024/01/23 04:46:45;;;;;;;24.83;16.10;;;;;;;;;;6263001;28;20810;-72
2024/01/23 04:49:47;;;;;;;30.40;19.48;;;;;;;;;;6267253;28;20410;-73
2024/01/23 04:52:56;;;;;;;26.30;18.00;;;;;;;;;;6279537;28;20056;-73
2024/01/23 04:55:59;;;;;;;22.00;12.38;;;;;;;;;;6277187;28;20045;-72
2024/01/23 04:59:01;;;;;;;20.08;14.70;;;;;;;;;;6280312;28;20873;-72
2024/01/23 05:02:05;;;;;;;27.98;14.38;;;;;;;;;;6280187;28;20044;-72
2024/01/23 05:05:08;;;;;;;27.20;13.75;;;;;;;;;;6276057;28;20442;-72
2024/01/23 05:08:10;;;;;;;41.28;15.48;;;;;;;;;;6275296;28;20056;-72
2024/01/23 05:11:12;;;;;;;46.22;19.15;;;;;;;;;;6274545;28;20048;-73
2024/01/23 05:14:17;;;;;;;12.63;11.30;;;;;;;;;;6275242;28;20630;-74
2024/01/23 05:17:19;;;;;;;30.75;15.05;;;;;;;;;;6274818;28;20182;-72
2024/01/23 05:20:21;;;;;;;47.85;23.10;;;;;;;;;;6281644;28;20044;-72
2024/01/23 05:23:25;;;;;;;30.55;16.45;;;;;;;;;;6263011;28;20044;-72
2024/01/23 05:26:28;;;;;;;13.48;7.63;;;;;;;;;;6286066;28;20051;-73
2024/01/23 05:29:30;;;;;;;16.35;12.25;;;;;;;;;;6276272;28;20043;-72
2024/01/23 05:32:33;;;;;;;25.60;12.38;;;;;;;;;;6273994;28;20052;-71
2024/01/23 05:35:37;;;;;;;15.25;10.20;;;;;;;;;;6281569;28;20059;-72
2024/01/23 05:38:39;;;;;;;17.05;15.35;;;;;;;;;;6282345;28;20756;-72
2024/01/23 05:41:41;;;;;;;23.88;13.95;;;;;;;;;;6284750;28;20142;-71
2024/01/23 05:44:43;;;;;;;17.25;11.77;;;;;;;;;;6287637;28;20698;-72
2024/01/23 05:47:46;;;;;;;34.25;19.05;;;;;;;;;;6247681;28;20526;-72
2024/01/23 05:50:48;;;;;;;47.13;31.88;;;;;;;;;;6260615;28;20056;-73
2024/01/23 05:53:52;;;;;;;39.00;19.05;;;;;;;;;;6278051;28;20632;-72
2024/01/23 05:56:53;;;;;;;27.52;24.77;;;;;;;;;;6266922;28;20815;-74
2024/01/23 05:59:56;;;;;;;23.48;13.52;;;;;;;;;;6282790;28;20028;-73
2024/01/23 06:03:00;;;;;;;25.95;14.75;;;;;;;;;;6280447;28;20033;-70
2024/01/23 06:06:02;;;;;;;15.63;8.50;;;;;;;;;;6280950;28;20040;-72
2024/01/23 06:09:05;;;;;;;21.30;13.95;;;;;;;;;;6278764;28;20128;-73
2024/01/23 06:12:07;;;;;;;17.80;12.23;;;;;;;;;;6281753;28;20056;-72
2024/01/23 06:15:10;;;;;;;34.72;11.25;;;;;;;;;;6285633;28;20050;-73
2024/01/23 06:18:12;;;;;;;11.52;8.70;;;;;;;;;;6307447;28;20056;-74
2024/01/23 06:21:14;;;;;;;23.23;9.45;;;;;;;;;;6279472;28;20534;-73
2024/01/23 06:24:17;;;;;;;16.17;13.90;;;;;;;;;;6283885;28;20120;-72
2024/01/23 06:27:19;;;;;;;16.45;13.25;;;;;;;;;;6276298;28;20064;-72
2024/01/23 06:30:22;;;;;;;14.35;12.98;;;;;;;;;;6283358;28;20040;-71
2024/01/23 06:33:25;;;;;;;16.60;13.80;;;;;;;;;;6280759;28;20051;-72
2024/01/23 06:36:29;;;;;;;21.58;13.35;;;;;;;;;;6282375;28;20048;-72
2024/01/23 06:39:31;;;;;;;19.20;14.93;;;;;;;;;;6283353;28;20087;-72
2024/01/23 06:42:35;;;;;;;33.95;15.70;;;;;;;;;;6282864;28;20060;-73
2024/01/23 06:45:38;;;;;;;16.35;13.68;;;;;;;;;;6278899;28;20105;-71
2024/01/23 06:48:41;;;;;;;18.17;11.43;;;;;;;;;;6281353;28;20143;-70
2024/01/23 06:51:45;;;;;;;11.98;9.63;;;;;;;;;;6284539;28;20037;-70
2024/01/23 06:54:47;;;;;;;16.90;9.07;;;;;;;;;;6272727;28;20048;-71
2024/01/23 06:57:49;;;;;;;16.20;11.50;;;;;;;;;;6277878;28;20041;-70
2024/01/23 07:00:52;;;;;;;14.98;11.57;;;;;;;;;;6280564;28;20812;-70
2024/01/23 07:03:55;;;;;;;22.17;13.88;;;;;;;;;;6279406;28;20711;-69
2024/01/23 07:06:57;;;;;;;20.40;16.00;;;;;;;;;;6283961;28;20763;-72
2024/01/23 07:09:59;;;;;;;6.55;5.80;;;;;;;;;;6283990;28;20045;-71
2024/01/23 07:13:01;;;;;;;18.63;13.32;;;;;;;;;;6280629;28;20052;-71
2024/01/23 07:16:05;;;;;;;30.65;16.42;;;;;;;;;;6266234;28;20060;-71
2024/01/23 07:19:07;;;;;;;13.35;9.50;;;;;;;;;;6276299;28;20063;-72
2024/01/23 07:22:10;;;;;;;13.05;8.48;;;;;;;;;;6276510;28;20049;-72
2024/01/23 07:25:13;;;;;;;12.55;10.18;;;;;;;;;;6279049;28;20050;-70
2024/01/23 07:28:15;;;;;;;14.27;9.55;;;;;;;;;;6262218;28;20057;-70
2024/01/23 07:31:39;;;;;;;9.57;8.65;;;;;;;;;;6278386;28;20138;-70
2024/01/23 07:34:41;;;;;;;13.13;9.32;;;;;;;;;;6282862;28;20082;-70
2024/01/23 07:37:43;;;;;;;19.33;11.57;;;;;;;;;;6279519;28;20053;-71
2024/01/23 07:40:45;;;;;;;17.85;13.30;;;;;;;;;;6280070;28;20055;-71
2024/01/23 07:43:47;;;;;;;18.05;16.33;;;;;;;;;;6282519;28;20067;-70
2024/01/23 07:46:49;;;;;;;33.10;13.23;;;;;;;;;;6270637;28;20101;-70
2024/01/23 07:49:52;;;;;;;17.27;10.55;;;;;;;;;;6271195;28;20836;-70
2024/01/23 07:52:55;;;;;;;22.60;13.90;;;;;;;;;;6285866;28;20052;-70
2024/01/23 07:55:57;;;;;;;21.25;19.35;;;;;;;;;;6281294;28;20724;-70
2024/01/23 07:58:59;;;;;;;26.23;16.27;;;;;;;;;;6269582;28;20044;-70
2024/01/23 08:02:01;;;;;;;28.80;20.52;;;;;;;;;;6261953;28;20044;-72
2024/01/23 08:05:03;;;;;;;26.20;16.35;;;;;;;;;;6286000;28;20044;-71
2024/01/23 08:08:06;;;;;;;25.38;18.95;;;;;;;;;;6275459;28;20109;-71
2024/01/23 08:11:08;;;;;;;21.40;16.90;;;;;;;;;;6278608;28;20124;-71
2024/01/23 08:14:10;;;;;;;26.08;13.52;;;;;;;;;;6275102;28;20052;-72
2024/01/23 08:17:13;;;;;;;26.35;18.83;;;;;;;;;;6273208;28;20052;-72
2024/01/23 08:20:15;;;;;;;21.40;12.43;;;;;;;;;;6275371;28;20594;-73
2024/01/23 08:23:17;;;;;;;41.67;19.60;;;;;;;;;;6279497;28;20048;-71
2024/01/23 08:26:19;;;;;;;31.10;16.23;;;;;;;;;;6281763;28;20055;-72
2024/01/23 08:29:32;;;;;;;30.05;23.15;;;;;;;;;;6278979;28;20483;-72
2024/01/23 08:32:34;;;;;;;29.05;15.75;;;;;;;;;;6286572;28;20082;-73
2024/01/23 08:35:36;;;;;;;49.13;20.85;;;;;;;;;;6274725;28;20278;-73
2024/01/23 08:38:38;;;;;;;28.48;16.65;;;;;;;;;;6287568;28;20047;-72
2024/01/23 08:41:45;;;;;;;34.60;22.35;;;;;;;;;;6278131;28;20048;-72
2024/01/23 08:44:49;;;;;;;38.17;23.92;;;;;;;;;;6275916;28;20045;-73
2024/01/23 08:47:55;;;;;;;40.30;23.25;;;;;;;;;;6277053;28;20067;-72
2024/01/23 08:50:57;;;;;;;23.48;17.23;;;;;;;;;;6274462;28;20048;-72
2024/01/23 08:54:00;;;;;;;51.00;25.40;;;;;;;;;;6276971;28;20064;-70
2024/01/23 08:57:03;;;;;;;46.95;26.05;;;;;;;;;;6291337;28;20052;-70
2024/01/23 09:00:06;;;;;;;58.10;29.58;;;;;;;;;;6281903;28;20045;-70
2024/01/23 09:03:08;;;;;;;43.58;23.92;;;;;;;;;;6278566;28;20563;-71
2024/01/23 09:06:11;;;;;;;54.00;29.00;;;;;;;;;;6279756;28;20678;-71
2024/01/23 09:09:14;;;;;;;53.78;30.85;;;;;;;;;;6280666;28;20064;-70
2024/01/23 09:12:19;;;;;;;33.20;21.27;;;;;;;;;;6275705;28;20045;-70
2024/01/23 09:15:21;;;;;;;39.85;23.60;;;;;;;;;;6283852;28;20046;-70
2024/01/23 09:18:23;;;;;;;32.70;18.48;;;;;;;;;;6285761;28;20847;-72
2024/01/23 09:21:25;;;;;;;52.05;28.98;;;;;;;;;;6281168;28;20047;-71
2024/01/23 09:24:28;;;;;;;67.30;38.03;;;;;;;;;;6288636;28;20044;-71
2024/01/23 09:27:31;;;;;;;52.40;28.27;;;;;;;;;;6284938;28;20060;-72
2024/01/23 09:30:49;;;;;;;36.00;20.70;;;;;;;;;;6285421;28;20036;-70
2024/01/23 09:33:51;;;;;;;42.17;24.65;;;;;;;;;;6281125;28;20047;-71
2024/01/23 09:36:54;;;;;;;79.43;37.28;;;;;;;;;;6283251;28;20087;-70
2024/01/23 09:39:56;;;;;;;63.35;28.85;;;;;;;;;;6283804;28;20861;-71
2024/01/23 09:43:02;;;;;;;67.38;36.35;;;;;;;;;;6290062;28;20056;-71
2024/01/23 09:46:04;;;;;;;46.60;27.02;;;;;;;;;;6284612;28;20044;-70
2024/01/23 09:49:06;;;;;;;44.95;22.88;;;;;;;;;;6302110;28;20527;-70
2024/01/23 09:52:10;;;;;;;56.90;27.25;;;;;;;;;;6281087;28;20064;-71
2024/01/23 09:55:13;;;;;;;67.25;33.10;;;;;;;;;;6279714;28;20077;-71
2024/01/23 09:58:16;;;;;;;59.53;32.28;;;;;;;;;;6282523;28;20139;-71
2024/01/23 10:01:18;;;;;;;65.35;34.85;;;;;;;;;;6280711;28;20442;-71
2024/01/23 10:04:21;;;;;;;44.35;27.98;;;;;;;;;;6284034;28;20078;-70
2024/01/23 10:07:25;;;;;;;80.50;45.67;;;;;;;;;;6285603;28;20052;-70
2024/01/23 10:10:29;;;;;;;65.50;30.17;;;;;;;;;;6277953;28;20638;-70
2024/01/23 10:13:31;;;;;;;83.13;39.00;;;;;;;;;;6280229;28;20436;-70
2024/01/23 10:16:34;;;;;;;52.20;27.33;;;;;;;;;;6281347;28;20061;-70
2024/01/23 10:19:37;;;;;;;91.60;39.97;;;;;;;;;;6283701;28;20048;-70
2024/01/23 10:22:39;;;;;;;62.53;33.72;;;;;;;;;;6277648;28;20053;-70
2024/01/23 10:25:42;;;;;;;71.78;38.22;;;;;;;;;;6279699;28;20047;-71
2024/01/23 10:28:49;;;;;;;73.03;36.40;;;;;;;;;;6282259;28;20421;-70
2024/01/23 10:31:51;;;;;;;54.97;26.85;;;;;;;;;;6284747;28;20494;-70
2024/01/23 10:34:54;;;;;;;52.10;25.85;;;;;;;;;;6279206;28;20040;-70
2024/01/23 10:37:56;;;;;;;42.50;23.10;;;;;;;;;;6280239;28;20849;-71
2024/01/23 10:40:59;;;;;;;50.88;26.05;;;;;;;;;;6272542;28;20044;-70
2024/01/23 10:44:02;;;;;;;56.53;30.70;;;;;;;;;;6285515;28;20051;-70
2024/01/23 10:47:05;;;;;;;56.75;26.67;;;;;;;;;;6283318;28;20121;-71
2024/01/23 10:50:10;;;;;;;35.65;23.70;;;;;;;;;;6280722;28;20080;-71
2024/01/23 10:53:15;;;;;;;51.83;27.63;;;;;;;;;;6277296;28;20044;-71
2024/01/23 10:56:17;;;;;;;63.85;31.00;;;;;;;;;;6281765;28;20048;-70
2024/01/23 10:59:21;;;;;;;54.25;27.40;;;;;;;;;;6276191;28;20134;-71
2024/01/23 11:02:47;;;;;;;63.92;30.85;;;;;;;;;;6278327;28;20507;-71
2024/01/23 11:05:57;;;;;;;58.25;27.65;;;;;;;;;;6286537;28;20036;-72
2024/01/23 11:09:24;;;;;;;59.08;29.52;;;;;;;;;;6270863;28;20516;-71
2024/01/23 11:12:44;;;;;;;57.70;27.48;;;;;;;;;;6270722;28;20153;-71
2024/01/23 11:15:47;;;;;;;60.10;31.42;;;;;;;;;;6279281;28;20048;-70
2024/01/23 11:18:54;;;;;;;59.70;31.20;;;;;;;;;;6280791;28;20454;-70
2024/01/23 11:22:03;;;;;;;51.85;27.90;;;;;;;;;;6259782;28;20541;-70
2024/01/23 11:25:05;;;;;;;50.53;26.63;;;;;;;;;;6283177;28;20048;-71
2024/01/23 11:28:08;;;;;;;49.50;23.48;;;;;;;;;;6284345;28;20040;-71
2024/01/23 11:31:22;;;;;;;65.88;36.70;;;;;;;;;;6267099;28;20587;-71
2024/01/23 11:34:27;;;;;;;58.92;34.58;;;;;;;;;;6278125;28;20048;-71
2024/01/23 11:37:33;;;;;;;50.30;25.70;;;;;;;;;;6280456;28;20047;-71
2024/01/23 11:40:37;;;;;;;53.88;27.00;;;;;;;;;;6278971;28;20045;-70
2024/01/23 11:43:43;;;;;;;44.90;27.42;;;;;;;;;;6281787;28;20529;-70
2024/01/23 11:46:49;;;;;;;52.17;27.15;;;;;;;;;;6276397;28;20124;-73
2024/01/23 11:49:51;;;;;;;51.03;25.80;;;;;;;;;;6284160;28;20596;-72
2024/01/23 11:52:55;;;;;;;60.63;27.70;;;;;;;;;;6279685;28;20052;-70
2024/01/23 11:55:58;;;;;;;44.92;25.35;;;;;;;;;;6282677;28;20462;-71
2024/01/23 11:59:00;;;;;;;32.67;20.38;;;;;;;;;;6282515;28;20039;-72
2024/01/23 12:02:02;;;;;;;25.05;14.88;;;;;;;;;;6279517;28;20087;-71
2024/01/23 12:05:04;;;;;;;44.05;23.27;;;;;;;;;;6274667;28;20048;-72
2024/01/23 12:08:06;;;;;;;61.22;28.80;;;;;;;;;;6274300;28;20569;-72
2024/01/23 12:11:09;;;;;;;48.45;29.30;;;;;;;;;;6282471;28;20041;-72
2024/01/23 12:14:11;;;;;;;41.58;21.17;;;;;;;;;;6277436;28;20093;-72
2024/01/23 12:17:13;;;;;;;63.90;32.75;;;;;;;;;;6259190;28;20516;-72
2024/01/23 12:20:16;;;;;;;63.05;34.45;;;;;;;;;;6276793;28;20052;-73
2024/01/23 12:23:19;;;;;;;52.03;26.55;;;;;;;;;;6275888;28;20033;-72
2024/01/23 12:26:21;;;;;;;37.65;22.13;;;;;;;;;;6269959;28;20187;-72
2024/01/23 12:29:23;;;;;;;52.13;28.17;;;;;;;;;;6277634;28;20432;-73
2024/01/23 12:32:29;;;;;;;58.65;31.25;;;;;;;;;;6278170;28;20531;-72
2024/01/23 12:35:31;;;;;;;60.30;32.15;;;;;;;;;;6283299;28;20049;-72
2024/01/23 12:38:34;;;;;;;79.18;39.58;;;;;;;;;;6277151;28;20910;-73
2024/01/23 12:41:36;;;;;;;56.08;31.88;;;;;;;;;;6274196;28;20044;-73
2024/01/23 12:44:38;;;;;;;57.22;27.55;;;;;;;;;;6275267;28;20041;-70
2024/01/23 12:47:44;;;;;;;63.55;33.03;;;;;;;;;;6259929;28;20055;-73
2024/01/23 12:50:46;;;;;;;;;;;;;;;;;;6274885;28;20079;-72
2024/01/23 12:53:48;;;;;;;62.13;29.65;;;;;;;;;;6276948;28;20058;-71
2024/01/23 12:56:50;;;;;;;81.00;40.03;;;;;;;;;;6275415;28;20044;-71
2024/01/23 12:59:52;;;;;;;66.00;28.70;;;;;;;;;;6273175;28;20048;-72
2024/01/23 13:02:54;;;;;;;47.15;23.40;;;;;;;;;;6282168;28;20570;-71
2024/01/23 13:05:56;;;;;;;49.72;26.48;;;;;;;;;;6264426;28;20055;-71
2024/01/23 13:08:58;;;;;;;59.45;29.30;;;;;;;;;;6277111;28;20052;-71
2024/01/23 13:12:01;;;;;;;40.90;23.55;;;;;;;;;;6273838;28;20591;-71
2024/01/23 13:15:04;;;;;;;49.97;22.67;;;;;;;;;;6279268;28;20052;-71
2024/01/23 13:18:07;;;;;;;44.80;26.92;;;;;;;;;;6275660;28;20056;-71
2024/01/23 13:21:09;;;;;;;28.33;14.32;;;;;;;;;;6281522;28;20045;-71
2024/01/23 13:24:11;;;;;;;27.17;13.18;;;;;;;;;;6276905;28;20048;-73
2024/01/23 13:27:13;;;;;;;31.80;14.45;;;;;;;;;;6278190;28;20174;-73
2024/01/23 13:30:16;;;;;;;25.17;11.93;;;;;;;;;;6281059;28;20802;-71
2024/01/23 13:33:20;;;;;;;22.00;11.50;;;;;;;;;;6274862;28;20083;-70
2024/01/23 13:36:22;;;;;;;25.67;11.80;;;;;;;;;;6271379;28;20516;-72
2024/01/23 13:39:24;;;;;;;21.63;13.20;;;;;;;;;;6278423;28;20147;-72
2024/01/23 13:42:26;;;;;;;64.20;37.67;;;;;;;;;;6279728;28;20775;-72
2024/01/23 13:45:28;;;;;;;90.45;43.70;;;;;;;;;;6280737;28;20037;-72
2024/01/23 13:48:30;;;;;;;86.30;44.55;;;;;;;;;;6271866;28;20507;-72
2024/01/23 13:51:32;;;;;;;56.95;31.20;;;;;;;;;;6274562;28;20067;-72
2024/01/23 13:54:35;;;;;;;64.07;35.17;;;;;;;;;;6278587;28;20052;-70
2024/01/23 13:57:38;;;;;;;61.10;33.55;;;;;;;;;;6282066;28;20751;-71
2024/01/23 14:00:41;;;;;;;66.40;34.25;;;;;;;;;;6280742;28;20840;-71
2024/01/23 14:03:43;;;;;;;60.38;32.40;;;;;;;;;;6284067;28;20831;-71
2024/01/23 14:06:45;;;;;;;63.90;37.15;;;;;;;;;;6283035;28;20150;-72
2024/01/23 14:09:48;;;;;;;69.30;40.78;;;;;;;;;;6280936;28;20400;-74
2024/01/23 14:12:50;;;;;;;70.32;39.80;;;;;;;;;;6281276;28;20049;-72
2024/01/23 14:15:53;;;;;;;62.90;39.50;;;;;;;;;;6277571;28;20052;-73
2024/01/23 14:18:58;;;;;;;64.07;34.28;;;;;;;;;;6283651;28;20146;-72
2024/01/23 14:22:00;;;;;;;63.95;33.42;;;;;;;;;;6281336;28;20128;-71
2024/01/23 14:25:02;;;;;;;59.28;33.17;;;;;;;;;;6285469;28;20509;-72
2024/01/23 14:28:04;;;;;;;65.57;37.72;;;;;;;;;;6275044;28;20869;-72
2024/01/23 14:31:08;;;;;;;63.25;39.72;;;;;;;;;;6281783;28;20056;-73
2024/01/23 14:34:10;;;;;;;65.03;32.95;;;;;;;;;;6274780;28;20048;-73
2024/01/23 14:37:12;;;;;;;69.95;33.90;;;;;;;;;;6281179;28;20056;-72
2024/01/23 14:40:16;;;;;;;68.55;35.88;;;;;;;;;;6285428;28;20127;-74
2024/01/23 14:43:18;;;;;;;60.85;34.22;;;;;;;;;;6287663;28;20056;-74
2024/01/23 14:46:20;;;;;;;59.63;32.80;;;;;;;;;;6282424;28;20059;-74
2024/01/23 14:49:22;;;;;;;76.57;36.58;;;;;;;;;;6250237;28;20060;-73
2024/01/23 14:52:25;;;;;;;79.80;42.58;;;;;;;;;;6276704;28;20049;-73
2024/01/23 14:55:34;;;;;;;68.57;38.33;;;;;;;;;;6274834;28;20458;-73
2024/01/23 14:58:36;;;;;;;69.68;34.70;;;;;;;;;;6280068;28;20569;-72
2024/01/23 15:01:38;;;;;;;70.70;34.38;;;;;;;;;;6289249;28;20043;-71
2024/01/23 15:04:41;;;;;;;68.05;35.65;;;;;;;;;;6278221;28;20907;-71
2024/01/23 15:07:43;;;;;;;69.32;35.25;;;;;;;;;;6280401;28;20055;-71
2024/01/23 15:10:45;;;;;;;68.60;32.63;;;;;;;;;;6280542;28;20079;-71
2024/01/23 15:13:48;;;;;;;63.72;31.83;;;;;;;;;;6276106;28;20044;-72
2024/01/23 15:16:50;;;;;;;54.22;29.38;;;;;;;;;;6278515;28;20048;-72
2024/01/23 15:19:52;;;;;;;55.15;30.80;;;;;;;;;;6277673;28;20459;-73
2024/01/23 15:22:54;;;;;;;51.30;32.60;;;;;;;;;;6283132;28;20044;-73
2024/01/23 15:25:56;;;;;;;54.67;30.92;;;;;;;;;;6275407;28;20045;-72
2024/01/23 15:28:59;;;;;;;76.43;36.58;;;;;;;;;;6272615;28;20988;-72
2024/01/23 15:32:03;;;;;;;71.80;38.63;;;;;;;;;;6280687;28;20087;-73
2024/01/23 15:35:06;;;;;;;64.50;33.45;;;;;;;;;;6279872;28;20182;-73
2024/01/23 15:38:08;;;;;;;63.83;31.63;;;;;;;;;;6264889;28;20112;-72
2024/01/23 15:41:11;;;;;;;52.42;28.83;;;;;;;;;;6284435;28;20051;-72
2024/01/23 15:44:13;;;;;;;90.65;43.72;;;;;;;;;;6260149;28;20056;-73
2024/01/23 15:47:16;;;;;;;60.38;32.30;;;;;;;;;;6280781;28;20730;-72
2024/01/23 15:50:18;;;;;;;53.95;27.55;;;;;;;;;;6281634;28;20514;-72
2024/01/23 15:53:20;;;;;;;58.10;25.88;;;;;;;;;;6276265;28;20097;-72
2024/01/23 15:56:23;;;;;;;52.75;26.38;;;;;;;;;;6278932;28;20049;-71
2024/01/23 15:59:25;;;;;;;52.78;27.27;;;;;;;;;;6280879;28;20044;-73
2024/01/23 16:02:27;;;;;;;51.60;27.70;;;;;;;;;;6278590;28;20535;-74
2024/01/23 16:05:29;;;;;;;52.78;26.92;;;;;;;;;;6242668;28;20057;-72
2024/01/23 16:08:31;;;;;;;55.88;28.25;;;;;;;;;;6281678;28;20550;-73
2024/01/23 16:11:33;;;;;;;52.60;28.33;;;;;;;;;;6279074;28;20048;-73
2024/01/23 16:14:35;;;;;;;57.55;32.50;;;;;;;;;;6274827;28;20425;-73
2024/01/23 16:17:38;;;;;;;46.97;26.55;;;;;;;;;;6289247;28;20044;-73
2024/01/23 16:20:45;;;;;;;45.72;27.23;;;;;;;;;;6292524;28;20494;-72
2024/01/23 16:23:47;;;;;;;52.35;25.58;;;;;;;;;;6297317;28;20075;-71
2024/01/23 16:26:49;;;;;;;45.22;25.55;;;;;;;;;;6305259;28;20048;-72
2024/01/23 16:29:54;;;;;;;53.33;28.70;;;;;;;;;;6303822;28;20503;-73
2024/01/23 16:32:56;;;;;;;62.20;34.15;;;;;;;;;;6312769;28;20040;-72
2024/01/23 16:35:58;;;;;;;61.00;31.85;;;;;;;;;;6303220;28;20044;-72
2024/01/23 16:39:02;;;;;;;82.03;38.63;;;;;;;;;;6305233;28;20177;-70
2024/01/23 16:42:04;;;;;;;65.55;32.92;;;;;;;;;;6315425;28;20814;-72
2024/01/23 16:45:07;;;;;;;52.83;26.35;;;;;;;;;;6305546;28;20051;-71
2024/01/23 16:48:10;;;;;;;44.50;26.52;;;;;;;;;;6316566;28;20063;-72
2024/01/23 16:51:12;;;;;;;55.72;29.77;;;;;;;;;;6315613;28;20115;-73
2024/01/23 16:54:14;;;;;;;67.72;39.03;;;;;;;;;;6308549;28;20047;-73
2024/01/23 16:57:16;;;;;;;58.88;27.50;;;;;;;;;;6302289;28;20157;-72
2024/01/23 17:00:18;;;;;;;61.05;31.40;;;;;;;;;;6310464;28;20118;-72
2024/01/23 17:03:21;;;;;;;48.60;24.02;;;;;;;;;;6319236;28;20134;-72
2024/01/23 17:06:24;;;;;;;49.30;28.15;;;;;;;;;;6298707;28;20048;-71
2024/01/23 17:09:26;;;;;;;57.13;26.08;;;;;;;;;;6315727;28;20145;-71
2024/01/23 17:12:28;;;;;;;57.22;25.95;;;;;;;;;;6287950;28;20036;-71
2024/01/23 17:15:31;;;;;;;39.90;21.33;;;;;;;;;;6325688;28;20205;-71
2024/01/23 17:18:33;;;;;;;31.60;19.65;;;;;;;;;;6308888;28;20043;-71
2024/01/23 17:21:36;;;;;;;35.05;26.83;;;;;;;;;;6313728;28;20630;-71
2024/01/23 17:24:38;;;;;;;44.45;20.77;;;;;;;;;;6281779;28;20554;-71
2024/01/23 17:27:40;;;;;;;41.08;20.95;;;;;;;;;;6315326;28;20047;-72
2024/01/23 17:30:43;;;;;;;35.13;23.98;;;;;;;;;;6294378;28;20202;-72
2024/01/23 17:33:46;;;;;;;61.15;26.88;;;;;;;;;;6324372;28;20112;-72
2024/01/23 17:36:48;;;;;;;42.65;24.10;;;;;;;;;;6299574;28;20047;-71
2024/01/23 17:39:50;;;;;;;49.00;27.75;;;;;;;;;;6290716;28;20045;-72
2024/01/23 17:42:53;;;;;;;39.15;23.08;;;;;;;;;;6294028;28;20028;-74
2024/01/23 17:45:58;;;;;;;44.15;25.88;;;;;;;;;;6306100;28;20135;-71